Hopkinton, New York
Current Conditions -  °F | °C
As of 6:53 PM on Wednesday 22 Oct 2014 (Local Time) from KMSS Reporting Station
Overcast Overcast  
Wind Chill: 50°   Ceiling: 7000
Heat Index: 50°   Visibility: 10mi
Dew Point: 39°   Wind: 8mph
Humidity: 66%   Direction: 20°NNE
Pressure: 30.22"   Gusts: NA
Location:  44.7195°N, 74.6501°W
Report Text: KMSS 222253Z AUTO 02007KT 10SM OVC070 10/04 A3022 RMK AO2 SLP237 T01000039
Loading
Personal Weather Stations






























Interactive Weather Map
Tropical Storm Tracking
New forecast layout! Learn more

10-Day Weather Forecast

Advertisements
Track Severe Weather on mobile